TimePST,TemperatureF,Dew PointF,Humidity,Sea Level PressureIn,VisibilityMPH,Wind Direction,Wind SpeedMPH,Gust SpeedMPH,PrecipitationIn,Events,Conditions,WindDirDegrees,DateUTC
1:53 AM,8.1,5.0,87,30.48,10.0,ESE,3.5,-,N/A,,Clear,110,2013-01-02 09:53:00
2:53 AM,1.9,-0.9,88,30.51,10.0,Calm,Calm,-,N/A,,Clear,0,2013-01-02 10:53:00
4:53 AM,1.0,-2.0,87,30.51,10.0,NNE,3.5,-,N/A,,Clear,30,2013-01-02 12:53:00
5:39 AM,3.2,1.4,92,30.32,8.0,WNW,3.5,-,N/A,,Partly Cloudy,300,2013-01-02 13:39:00
5:53 AM,3.9,1.9,91,30.50,9.0,Calm,Calm,-,N/A,,Partly Cloudy,0,2013-01-02 13:53:00
6:01 AM,5.0,1.4,85,30.31,7.0,Calm,Calm,-,N/A,,Clear,0,2013-01-02 14:01:00
7:53 AM,3.9,1.0,88,30.53,10.0,NE,4.6,-,N/A,,Partly Cloudy,50,2013-01-02 15:53:00
8:53 AM,6.1,3.0,87,30.52,10.0,North,4.6,-,N/A,,Partly Cloudy,350,2013-01-02 16:53:00
9:53 AM,10.9,9.0,92,30.52,10.0,West,3.5,-,N/A,,Partly Cloudy,280,2013-01-02 17:53:00
10:53 AM,12.9,10.0,88,30.49,10.0,North,5.8,-,N/A,,Partly Cloudy,350,2013-01-02 18:53:00
11:53 AM,19.0,10.9,71,30.44,10.0,NNE,3.5,-,N/A,,Partly Cloudy,30,2013-01-02 19:53:00
12:53 PM,19.0,12.0,74,30.43,10.0,WNW,4.6,-,N/A,,Partly Cloudy,290,2013-01-02 20:53:00
1:53 PM,23.0,15.1,72,30.40,10.0,North,8.1,-,N/A,,Partly Cloudy,350,2013-01-02 21:53:00
3:53 PM,21.0,14.0,74,30.39,10.0,North,6.9,-,N/A,,Partly Cloudy,350,2013-01-02 23:53:00
4:53 PM,18.0,12.9,81,30.39,10.0,Calm,Calm,-,N/A,,Partly Cloudy,0,2013-01-03 00:53:00
5:53 PM,12.9,9.0,84,30.40,10.0,NW,4.6,-,N/A,,Clear,310,2013-01-03 01:53:00
6:53 PM,10.9,8.1,88,30.40,10.0,Calm,Calm,-,N/A,,Clear,0,2013-01-03 02:53:00
7:53 PM,8.1,6.1,92,30.41,10.0,Calm,Calm,-,N/A,,Clear,0,2013-01-03 03:53:00
8:53 PM,9.0,6.1,88,30.40,10.0,Calm,Calm,-,N/A,,Clear,0,2013-01-03 04:53:00
9:53 PM,7.0,3.9,87,30.38,10.0,Calm,Calm,-,N/A,,Clear,0,2013-01-03 05:53:00
10:53 PM,9.0,6.1,88,30.37,10.0,Calm,Calm,-,N/A,,Clear,0,2013-01-03 06:53:00
11:53 PM,3.9,1.9,91,30.36,10.0,NNE,5.8,-,N/A,,Clear,20,2013-01-03 07:53:00